sensor_id;sensor_type;location;lat;lon;timestamp;temperature;humidity
30473;DHT22;17263;48.160;11.452;2023-05-10T00:01:13;14.00;99.90
30473;DHT22;17263;48.160;11.452;2023-05-10T00:03:39;14.00;99.90
30473;DHT22;17263;48.160;11.452;2023-05-10T00:06:06;14.00;99.90
30473;DHT22;17263;48.160;11.452;2023-05-10T00:08:32;14.00;99.90
30473;DHT22;17263;48.160;11.452;2023-05-10T00:10:58;14.00;99.90
30473;DHT22;17263;48.160;11.452;2023-05-10T00:13:24;14.10;99.90
30473;DHT22;17263;48.160;11.452;2023-05-10T00:15:50;14.10;99.90
30473;DHT22;17263;48.160;11.452;2023-05-10T00:18:16;14.10;99.90
30473;DHT22;17263;48.160;11.452;2023-05-10T00:20:42;14.00;99.90
30473;DHT22;17263;48.160;11.452;2023-05-10T00:23:08;14.00;99.90
30473;DHT22;17263;48.160;11.452;2023-05-10T00:25:34;14.00;99.90
30473;DHT22;17263;48.160;11.452;2023-05-10T00:28:00;13.90;99.90
30473;DHT22;17263;48.160;11.452;2023-05-10T00:30:27;14.00;99.90
30473;DHT22;17263;48.160;11.452;2023-05-10T00:32:53;14.00;99.90
30473;DHT22;17263;48.160;11.452;2023-05-10T00:35:19;14.00;99.90
30473;DHT22;17263;48.160;11.452;2023-05-10T00:37:45;14.00;99.90
30473;DHT22;17263;48.160;11.452;2023-05-10T00:40:11;14.00;99.90
30473;DHT22;17263;48.160;11.452;2023-05-10T00:42:37;14.00;99.90
30473;DHT22;17263;48.160;11.452;2023-05-10T00:45:04;13.90;99.90
30473;DHT22;17263;48.160;11.452;2023-05-10T00:47:31;13.90;99.90
30473;DHT22;17263;48.160;11.452;2023-05-10T00:49:57;13.90;99.90
30473;DHT22;17263;48.160;11.452;2023-05-10T00:52:23;14.00;99.90
30473;DHT22;17263;48.160;11.452;2023-05-10T00:54:51;14.00;99.90
30473;DHT22;17263;48.160;11.452;2023-05-10T00:57:18;13.90;99.90
30473;DHT22;17263;48.160;11.452;2023-05-10T00:59:44;13.90;99.90
30473;DHT22;17263;48.160;11.452;2023-05-10T01:02:10;13.90;99.90
30473;DHT22;17263;48.160;11.452;2023-05-10T01:04:37;13.90;99.90
30473;DHT22;17263;48.160;11.452;2023-05-10T01:07:03;13.80;99.90
30473;DHT22;17263;48.160;11.452;2023-05-10T01:09:29;13.80;99.90
30473;DHT22;17263;48.160;11.452;2023-05-10T01:11:56;13.90;99.90
30473;DHT22;17263;48.160;11.452;2023-05-10T01:14:23;13.90;99.90
30473;DHT22;17263;48.160;11.452;2023-05-10T01:16:49;13.80;99.90
30473;DHT22;17263;48.160;11.452;2023-05-10T01:19:22;13.80;99.90
30473;DHT22;17263;48.160;11.452;2023-05-10T01:21:56;13.80;99.90
30473;DHT22;17263;48.160;11.452;2023-05-10T01:24:35;13.70;99.90
30473;DHT22;17263;48.160;11.452;2023-05-10T01:33:35;13.70;99.90
30473;DHT22;17263;48.160;11.452;2023-05-10T01:36:19;13.70;99.90
30473;DHT22;17263;48.160;11.452;2023-05-10T01:39:02;13.70;99.90
30473;DHT22;17263;48.160;11.452;2023-05-10T01:41:51;13.70;99.90
30473;DHT22;17263;48.160;11.452;2023-05-10T01:44:24;13.60;99.90
30473;DHT22;17263;48.160;11.452;2023-05-10T01:47:04;13.60;99.90
30473;DHT22;17263;48.160;11.452;2023-05-10T01:49:36;13.70;99.90
30473;DHT22;17263;48.160;11.452;2023-05-10T01:52:09;13.70;99.90
30473;DHT22;17263;48.160;11.452;2023-05-10T01:54:38;13.70;99.90
30473;DHT22;17263;48.160;11.452;2023-05-10T01:57:09;13.60;99.90
30473;DHT22;17263;48.160;11.452;2023-05-10T01:59:38;13.60;99.90
30473;DHT22;17263;48.160;11.452;2023-05-10T02:02:08;13.60;99.90
30473;DHT22;17263;48.160;11.452;2023-05-10T02:04:38;13.60;99.90
30473;DHT22;17263;48.160;11.452;2023-05-10T02:07:06;13.60;99.90
30473;DHT22;17263;48.160;11.452;2023-05-10T02:09:33;13.60;99.90
30473;DHT22;17263;48.160;11.452;2023-05-10T02:12:02;13.60;99.90
30473;DHT22;17263;48.160;11.452;2023-05-10T02:14:35;13.50;99.90
30473;DHT22;17263;48.160;11.452;2023-05-10T02:17:04;13.50;99.90
30473;DHT22;17263;48.160;11.452;2023-05-10T02:19:32;13.50;99.90
30473;DHT22;17263;48.160;11.452;2023-05-10T02:21:59;13.50;99.90
30473;DHT22;17263;48.160;11.452;2023-05-10T02:24:27;13.50;99.90
30473;DHT22;17263;48.160;11.452;2023-05-10T02:26:54;13.50;99.90
30473;DHT22;17263;48.160;11.452;2023-05-10T02:29:23;13.50;99.90
30473;DHT22;17263;48.160;11.452;2023-05-10T02:31:53;13.50;99.90
30473;DHT22;17263;48.160;11.452;2023-05-10T02:34:21;13.40;99.90
30473;DHT22;17263;48.160;11.452;2023-05-10T02:36:48;13.40;99.90
30473;DHT22;17263;48.160;11.452;2023-05-10T02:39:16;13.50;99.90
30473;DHT22;17263;48.160;11.452;2023-05-10T02:41:45;13.40;99.90
30473;DHT22;17263;48.160;11.452;2023-05-10T02:44:14;13.50;99.90
30473;DHT22;17263;48.160;11.452;2023-05-10T02:46:40;13.40;99.90
30473;DHT22;17263;48.160;11.452;2023-05-10T02:49:07;13.40;99.90
30473;DHT22;17263;48.160;11.452;2023-05-10T02:51:35;13.40;99.90
30473;DHT22;17263;48.160;11.452;2023-05-10T02:54:08;13.50;99.90
30473;DHT22;17263;48.160;11.452;2023-05-10T02:56:36;13.40;99.90
30473;DHT22;17263;48.160;11.452;2023-05-10T02:59:06;13.50;99.90
30473;DHT22;17263;48.160;11.452;2023-05-10T03:01:32;13.50;99.90
30473;DHT22;17263;48.160;11.452;2023-05-10T03:03:58;13.50;99.90
30473;DHT22;17263;48.160;11.452;2023-05-10T03:06:24;13.50;99.90
30473;DHT22;17263;48.160;11.452;2023-05-10T03:08:50;13.50;99.90
30473;DHT22;17263;48.160;11.452;2023-05-10T03:11:32;13.50;99.90
30473;DHT22;17263;48.160;11.452;2023-05-10T03:16:45;13.50;99.90
30473;DHT22;17263;48.160;11.452;2023-05-10T03:19:29;13.50;99.90
30473;DHT22;17263;48.160;11.452;2023-05-10T03:21:59;13.50;99.90
30473;DHT22;17263;48.160;11.452;2023-05-10T03:24:30;13.50;99.90
30473;DHT22;17263;48.160;11.452;2023-05-10T03:26:59;13.50;99.90
30473;DHT22;17263;48.160;11.452;2023-05-10T03:29:29;13.50;99.90
30473;DHT22;17263;48.160;11.452;2023-05-10T03:31:58;13.60;99.90
30473;DHT22;17263;48.160;11.452;2023-05-10T03:34:25;13.60;99.90
30473;DHT22;17263;48.160;11.452;2023-05-10T03:36:51;13.60;99.90
30473;DHT22;17263;48.160;11.452;2023-05-10T03:39:18;13.60;99.90
30473;DHT22;17263;48.160;11.452;2023-05-10T03:41:43;13.60;99.90
30473;DHT22;17263;48.160;11.452;2023-05-10T03:44:10;13.50;99.90
30473;DHT22;17263;48.160;11.452;2023-05-10T03:46:36;13.50;99.90
30473;DHT22;17263;48.160;11.452;2023-05-10T03:49:02;13.50;99.90
30473;DHT22;17263;48.160;11.452;2023-05-10T03:51:28;13.50;99.90
30473;DHT22;17263;48.160;11.452;2023-05-10T03:53:54;13.50;99.90
30473;DHT22;17263;48.160;11.452;2023-05-10T03:56:21;13.50;99.90
30473;DHT22;17263;48.160;11.452;2023-05-10T03:58:47;13.50;99.90
30473;DHT22;17263;48.160;11.452;2023-05-10T04:01:13;13.50;99.90
30473;DHT22;17263;48.160;11.452;2023-05-10T04:03:39;13.50;99.90
30473;DHT22;17263;48.160;11.452;2023-05-10T04:06:06;13.50;99.90
30473;DHT22;17263;48.160;11.452;2023-05-10T04:08:33;13.60;99.90
30473;DHT22;17263;48.160;11.452;2023-05-10T04:11:05;13.60;99.90
30473;DHT22;17263;48.160;11.452;2023-05-10T04:13:32;13.60;99.90
30473;DHT22;17263;48.160;11.452;2023-05-10T04:15:58;13.60;99.90
30473;DHT22;17263;48.160;11.452;2023-05-10T04:18:24;13.50;99.90
30473;DHT22;17263;48.160;11.452;2023-05-10T04:20:50;13.60;99.90
30473;DHT22;17263;48.160;11.452;2023-05-10T04:23:16;13.50;99.90
30473;DHT22;17263;48.160;11.452;2023-05-10T04:25:42;13.60;99.90
30473;DHT22;17263;48.160;11.452;2023-05-10T04:28:08;13.50;99.90
30473;DHT22;17263;48.160;11.452;2023-05-10T04:30:35;13.50;99.90
30473;DHT22;17263;48.160;11.452;2023-05-10T04:33:01;13.50;99.90
30473;DHT22;17263;48.160;11.452;2023-05-10T04:35:27;13.50;99.90
30473;DHT22;17263;48.160;11.452;2023-05-10T04:37:54;13.60;99.90
30473;DHT22;17263;48.160;11.452;2023-05-10T04:40:20;13.70;99.90
30473;DHT22;17263;48.160;11.452;2023-05-10T04:42:46;13.60;99.90
30473;DHT22;17263;48.160;11.452;2023-05-10T04:45:12;13.60;99.90
30473;DHT22;17263;48.160;11.452;2023-05-10T04:47:40;13.60;99.90
30473;DHT22;17263;48.160;11.452;2023-05-10T04:50:07;13.60;99.90
30473;DHT22;17263;48.160;11.452;2023-05-10T04:52:34;13.60;99.90
30473;DHT22;17263;48.160;11.452;2023-05-10T04:55:00;13.60;99.90
30473;DHT22;17263;48.160;11.452;2023-05-10T04:57:26;13.60;99.90
30473;DHT22;17263;48.160;11.452;2023-05-10T04:59:52;13.50;99.90
30473;DHT22;17263;48.160;11.452;2023-05-10T05:02:18;13.50;99.90
30473;DHT22;17263;48.160;11.452;2023-05-10T05:04:44;13.50;99.90
30473;DHT22;17263;48.160;11.452;2023-05-10T05:07:10;13.50;99.90
30473;DHT22;17263;48.160;11.452;2023-05-10T05:09:36;13.50;99.90
30473;DHT22;17263;48.160;11.452;2023-05-10T05:12:02;13.50;99.90
30473;DHT22;17263;48.160;11.452;2023-05-10T05:14:28;13.50;99.90
30473;DHT22;17263;48.160;11.452;2023-05-10T05:16:54;13.40;99.90
30473;DHT22;17263;48.160;11.452;2023-05-10T05:19:21;13.40;99.90
30473;DHT22;17263;48.160;11.452;2023-05-10T05:21:48;13.40;99.90
30473;DHT22;17263;48.160;11.452;2023-05-10T05:24:14;13.30;99.90
30473;DHT22;17263;48.160;11.452;2023-05-10T05:26:40;13.30;99.90
30473;DHT22;17263;48.160;11.452;2023-05-10T05:29:06;13.30;99.90
30473;DHT22;17263;48.160;11.452;2023-05-10T05:31:32;13.30;99.90
30473;DHT22;17263;48.160;11.452;2023-05-10T05:33:58;13.20;99.90
30473;DHT22;17263;48.160;11.452;2023-05-10T05:36:24;13.20;99.90
30473;DHT22;17263;48.160;11.452;2023-05-10T05:38:50;13.20;99.90
30473;DHT22;17263;48.160;11.452;2023-05-10T05:41:16;13.20;99.90
30473;DHT22;17263;48.160;11.452;2023-05-10T05:43:42;13.10;99.90
30473;DHT22;17263;48.160;11.452;2023-05-10T05:46:08;13.10;99.90
30473;DHT22;17263;48.160;11.452;2023-05-10T05:48:34;13.10;99.90
30473;DHT22;17263;48.160;11.452;2023-05-10T05:51:00;13.20;99.90
30473;DHT22;17263;48.160;11.452;2023-05-10T05:53:27;13.20;99.90
30473;DHT22;17263;48.160;11.452;2023-05-10T05:55:54;13.20;99.90
30473;DHT22;17263;48.160;11.452;2023-05-10T05:58:21;13.30;99.90
30473;DHT22;17263;48.160;11.452;2023-05-10T06:00:47;13.40;99.90
30473;DHT22;17263;48.160;11.452;2023-05-10T06:03:13;13.40;99.90
30473;DHT22;17263;48.160;11.452;2023-05-10T06:05:39;13.40;99.90
30473;DHT22;17263;48.160;11.452;2023-05-10T06:08:05;13.50;99.90
30473;DHT22;17263;48.160;11.452;2023-05-10T06:10:31;13.50;99.90
30473;DHT22;17263;48.160;11.452;2023-05-10T06:12:57;13.50;99.90
30473;DHT22;17263;48.160;11.452;2023-05-10T06:15:23;13.50;99.90
30473;DHT22;17263;48.160;11.452;2023-05-10T06:17:49;13.50;99.90
30473;DHT22;17263;48.160;11.452;2023-05-10T06:20:15;13.50;99.90
30473;DHT22;17263;48.160;11.452;2023-05-10T06:22:42;13.60;99.90
30473;DHT22;17263;48.160;11.452;2023-05-10T06:25:08;13.60;99.90
30473;DHT22;17263;48.160;11.452;2023-05-10T06:27:34;13.60;99.90
30473;DHT22;17263;48.160;11.452;2023-05-10T06:30:01;13.70;99.90
30473;DHT22;17263;48.160;11.452;2023-05-10T06:32:27;13.70;99.90
30473;DHT22;17263;48.160;11.452;2023-05-10T06:34:53;13.80;99.90
30473;DHT22;17263;48.160;11.452;2023-05-10T06:37:19;13.80;99.90
30473;DHT22;17263;48.160;11.452;2023-05-10T06:39:46;13.80;99.90
30473;DHT22;17263;48.160;11.452;2023-05-10T06:42:12;13.90;99.90
30473;DHT22;17263;48.160;11.452;2023-05-10T06:44:38;13.90;99.90
30473;DHT22;17263;48.160;11.452;2023-05-10T06:47:04;14.00;99.90
30473;DHT22;17263;48.160;11.452;2023-05-10T06:49:30;14.00;99.90
30473;DHT22;17263;48.160;11.452;2023-05-10T06:51:56;14.10;99.90
30473;DHT22;17263;48.160;11.452;2023-05-10T06:54:22;14.10;99.90
30473;DHT22;17263;48.160;11.452;2023-05-10T06:56:49;14.30;99.90
30473;DHT22;17263;48.160;11.452;2023-05-10T06:59:15;14.30;99.90
30473;DHT22;17263;48.160;11.452;2023-05-10T07:01:42;14.40;99.90
30473;DHT22;17263;48.160;11.452;2023-05-10T07:04:08;14.50;99.90
30473;DHT22;17263;48.160;11.452;2023-05-10T07:06:34;14.60;99.90
30473;DHT22;17263;48.160;11.452;2023-05-10T07:09:01;14.70;99.90
30473;DHT22;17263;48.160;11.452;2023-05-10T07:11:27;14.80;99.90
30473;DHT22;17263;48.160;11.452;2023-05-10T07:13:53;15.00;99.90
30473;DHT22;17263;48.160;11.452;2023-05-10T07:16:19;15.30;99.90
30473;DHT22;17263;48.160;11.452;2023-05-10T07:18:45;15.50;99.90
30473;DHT22;17263;48.160;11.452;2023-05-10T07:21:11;15.80;99.90
30473;DHT22;17263;48.160;11.452;2023-05-10T07:23:37;16.10;99.90
30473;DHT22;17263;48.160;11.452;2023-05-10T07:26:04;16.30;99.90
30473;DHT22;17263;48.160;11.452;2023-05-10T07:28:30;16.30;99.90
30473;DHT22;17263;48.160;11.452;2023-05-10T07:30:56;16.30;99.90
30473;DHT22;17263;48.160;11.452;2023-05-10T07:33:22;16.30;99.90
30473;DHT22;17263;48.160;11.452;2023-05-10T07:35:49;16.40;99.90
30473;DHT22;17263;48.160;11.452;2023-05-10T07:38:15;16.50;99.90
30473;DHT22;17263;48.160;11.452;2023-05-10T07:40:41;16.50;99.90
30473;DHT22;17263;48.160;11.452;2023-05-10T07:43:07;16.60;99.90
30473;DHT22;17263;48.160;11.452;2023-05-10T07:45:33;16.70;99.90
30473;DHT22;17263;48.160;11.452;2023-05-10T07:47:59;17.00;99.90
30473;DHT22;17263;48.160;11.452;2023-05-10T07:50:25;17.20;99.90
30473;DHT22;17263;48.160;11.452;2023-05-10T07:52:51;17.40;99.90
30473;DHT22;17263;48.160;11.452;2023-05-10T07:55:18;17.60;99.90
30473;DHT22;17263;48.160;11.452;2023-05-10T07:57:44;17.70;99.90
30473;DHT22;17263;48.160;11.452;2023-05-10T08:00:12;17.70;99.90
30473;DHT22;17263;48.160;11.452;2023-05-10T08:02:39;17.70;99.90
30473;DHT22;17263;48.160;11.452;2023-05-10T08:05:05;17.60;99.90
30473;DHT22;17263;48.160;11.452;2023-05-10T08:07:31;17.50;99.90
30473;DHT22;17263;48.160;11.452;2023-05-10T08:09:57;17.40;99.90
30473;DHT22;17263;48.160;11.452;2023-05-10T08:12:23;17.40;99.90
30473;DHT22;17263;48.160;11.452;2023-05-10T08:14:49;17.50;99.90
30473;DHT22;17263;48.160;11.452;2023-05-10T08:17:16;17.60;99.90
30473;DHT22;17263;48.160;11.452;2023-05-10T08:19:42;17.50;99.90
30473;DHT22;17263;48.160;11.452;2023-05-10T08:22:08;17.30;99.90
30473;DHT22;17263;48.160;11.452;2023-05-10T08:24:34;17.10;99.90
30473;DHT22;17263;48.160;11.452;2023-05-10T08:27:07;16.90;99.90
30473;DHT22;17263;48.160;11.452;2023-05-10T08:29:34;16.50;99.90
30473;DHT22;17263;48.160;11.452;2023-05-10T08:32:00;16.40;99.90
30473;DHT22;17263;48.160;11.452;2023-05-10T08:34:27;16.20;99.90
30473;DHT22;17263;48.160;11.452;2023-05-10T08:36:53;16.10;99.90
30473;DHT22;17263;48.160;11.452;2023-05-10T08:39:19;16.20;99.90
30473;DHT22;17263;48.160;11.452;2023-05-10T08:41:46;16.30;99.90
30473;DHT22;17263;48.160;11.452;2023-05-10T08:44:14;16.40;99.90
30473;DHT22;17263;48.160;11.452;2023-05-10T08:46:41;16.30;99.90
30473;DHT22;17263;48.160;11.452;2023-05-10T08:49:11;16.20;99.90
30473;DHT22;17263;48.160;11.452;2023-05-10T08:51:40;15.90;99.90
30473;DHT22;17263;48.160;11.452;2023-05-10T08:54:09;16.00;99.90
30473;DHT22;17263;48.160;11.452;2023-05-10T08:56:36;16.00;99.90
30473;DHT22;17263;48.160;11.452;2023-05-10T08:59:05;16.50;99.90
30473;DHT22;17263;48.160;11.452;2023-05-10T09:01:31;16.90;99.90
30473;DHT22;17263;48.160;11.452;2023-05-10T09:03:58;17.40;99.90
30473;DHT22;17263;48.160;11.452;2023-05-10T09:06:24;18.00;99.90
30473;DHT22;17263;48.160;11.452;2023-05-10T09:08:51;18.40;99.90
30473;DHT22;17263;48.160;11.452;2023-05-10T09:11:18;18.40;99.90
30473;DHT22;17263;48.160;11.452;2023-05-10T09:13:47;18.40;99.90
30473;DHT22;17263;48.160;11.452;2023-05-10T09:16:13;18.10;99.90
30473;DHT22;17263;48.160;11.452;2023-05-10T09:18:39;17.90;99.90
30473;DHT22;17263;48.160;11.452;2023-05-10T09:21:05;17.70;99.90
30473;DHT22;17263;48.160;11.452;2023-05-10T09:23:31;17.50;99.90
30473;DHT22;17263;48.160;11.452;2023-05-10T09:26:05;17.40;99.90
30473;DHT22;17263;48.160;11.452;2023-05-10T09:28:32;17.30;99.90
30473;DHT22;17263;48.160;11.452;2023-05-10T09:30:58;17.30;99.90
30473;DHT22;17263;48.160;11.452;2023-05-10T09:33:25;17.40;99.90
30473;DHT22;17263;48.160;11.452;2023-05-10T09:35:52;17.40;99.90
30473;DHT22;17263;48.160;11.452;2023-05-10T09:38:18;17.70;99.90
30473;DHT22;17263;48.160;11.452;2023-05-10T09:40:52;17.80;99.90
30473;DHT22;17263;48.160;11.452;2023-05-10T09:43:21;17.70;99.90
30473;DHT22;17263;48.160;11.452;2023-05-10T09:45:48;17.70;99.90
30473;DHT22;17263;48.160;11.452;2023-05-10T09:48:17;17.70;99.90
30473;DHT22;17263;48.160;11.452;2023-05-10T09:50:43;17.70;99.90
30473;DHT22;17263;48.160;11.452;2023-05-10T09:53:09;17.70;99.90
30473;DHT22;17263;48.160;11.452;2023-05-10T09:55:44;17.80;99.90
30473;DHT22;17263;48.160;11.452;2023-05-10T09:58:12;17.80;99.90
30473;DHT22;17263;48.160;11.452;2023-05-10T10:00:46;17.90;99.90
30473;DHT22;17263;48.160;11.452;2023-05-10T10:03:15;17.90;99.90
30473;DHT22;17263;48.160;11.452;2023-05-10T10:05:42;18.00;99.90
30473;DHT22;17263;48.160;11.452;2023-05-10T10:08:10;18.10;99.90
30473;DHT22;17263;48.160;11.452;2023-05-10T10:10:36;18.30;99.90
30473;DHT22;17263;48.160;11.452;2023-05-10T10:13:02;18.30;99.90
30473;DHT22;17263;48.160;11.452;2023-05-10T10:15:28;18.30;99.90
30473;DHT22;17263;48.160;11.452;2023-05-10T10:17:54;18.60;99.90
30473;DHT22;17263;48.160;11.452;2023-05-10T10:20:22;19.00;99.90
30473;DHT22;17263;48.160;11.452;2023-05-10T10:22:48;19.60;99.90
30473;DHT22;17263;48.160;11.452;2023-05-10T10:25:16;19.70;99.90
30473;DHT22;17263;48.160;11.452;2023-05-10T10:35:58;19.50;99.90
30473;DHT22;17263;48.160;11.452;2023-05-10T10:38:24;19.10;99.90
30473;DHT22;17263;48.160;11.452;2023-05-10T10:41:09;18.80;99.90
30473;DHT22;17263;48.160;11.452;2023-05-10T10:43:35;18.40;99.90
30473;DHT22;17263;48.160;11.452;2023-05-10T10:46:11;17.90;99.90
30473;DHT22;17263;48.160;11.452;2023-05-10T10:48:41;17.60;99.90
30473;DHT22;17263;48.160;11.452;2023-05-10T10:51:07;17.60;99.90
30473;DHT22;17263;48.160;11.452;2023-05-10T10:53:33;17.40;99.90
30473;DHT22;17263;48.160;11.452;2023-05-10T10:56:22;17.20;99.90
30473;DHT22;17263;48.160;11.452;2023-05-10T10:58:51;17.10;99.90
30473;DHT22;17263;48.160;11.452;2023-05-10T11:01:18;17.10;99.90
30473;DHT22;17263;48.160;11.452;2023-05-10T11:06:30;17.20;99.90
30473;DHT22;17263;48.160;11.452;2023-05-10T11:09:07;17.20;99.90
30473;DHT22;17263;48.160;11.452;2023-05-10T11:11:50;17.10;99.90
30473;DHT22;17263;48.160;11.452;2023-05-10T11:14:20;16.90;99.90
30473;DHT22;17263;48.160;11.452;2023-05-10T11:16:47;16.80;99.90
30473;DHT22;17263;48.160;11.452;2023-05-10T11:19:15;16.50;99.90
30473;DHT22;17263;48.160;11.452;2023-05-10T11:24:22;16.00;99.90
30473;DHT22;17263;48.160;11.452;2023-05-10T11:26:51;15.80;99.90
30473;DHT22;17263;48.160;11.452;2023-05-10T11:29:19;15.50;99.90
30473;DHT22;17263;48.160;11.452;2023-05-10T11:31:46;15.30;99.90
30473;DHT22;17263;48.160;11.452;2023-05-10T11:34:32;15.10;99.90
30473;DHT22;17263;48.160;11.452;2023-05-10T11:37:01;14.90;99.90
30473;DHT22;17263;48.160;11.452;2023-05-10T11:39:28;14.70;99.90
30473;DHT22;17263;48.160;11.452;2023-05-10T11:41:55;14.60;99.90
30473;DHT22;17263;48.160;11.452;2023-05-10T11:44:21;14.50;99.90
30473;DHT22;17263;48.160;11.452;2023-05-10T11:46:47;14.40;99.90
30473;DHT22;17263;48.160;11.452;2023-05-10T11:49:14;14.50;99.90
30473;DHT22;17263;48.160;11.452;2023-05-10T11:51:40;14.40;99.90
30473;DHT22;17263;48.160;11.452;2023-05-10T11:54:09;14.20;99.90
30473;DHT22;17263;48.160;11.452;2023-05-10T11:56:37;14.10;99.90
30473;DHT22;17263;48.160;11.452;2023-05-10T11:59:04;13.90;99.90
30473;DHT22;17263;48.160;11.452;2023-05-10T12:01:30;13.90;99.90
30473;DHT22;17263;48.160;11.452;2023-05-10T12:03:58;13.80;99.90
30473;DHT22;17263;48.160;11.452;2023-05-10T12:06:33;13.80;99.90
30473;DHT22;17263;48.160;11.452;2023-05-10T12:09:06;13.70;99.90
30473;DHT22;17263;48.160;11.452;2023-05-10T12:11:37;13.60;99.90
30473;DHT22;17263;48.160;11.452;2023-05-10T12:14:05;13.60;99.90
30473;DHT22;17263;48.160;11.452;2023-05-10T12:16:31;13.70;99.90
30473;DHT22;17263;48.160;11.452;2023-05-10T12:18:59;13.60;99.90
30473;DHT22;17263;48.160;11.452;2023-05-10T12:21:27;13.70;99.90
30473;DHT22;17263;48.160;11.452;2023-05-10T12:23:56;13.80;99.90
30473;DHT22;17263;48.160;11.452;2023-05-10T12:26:24;13.80;99.90
30473;DHT22;17263;48.160;11.452;2023-05-10T12:29:10;13.80;99.90
30473;DHT22;17263;48.160;11.452;2023-05-10T12:31:56;13.80;99.90
30473;DHT22;17263;48.160;11.452;2023-05-10T12:34:27;13.80;99.90
30473;DHT22;17263;48.160;11.452;2023-05-10T12:36:55;13.90;99.90
30473;DHT22;17263;48.160;11.452;2023-05-10T12:39:21;13.80;99.90
30473;DHT22;17263;48.160;11.452;2023-05-10T12:41:48;13.90;99.90
30473;DHT22;17263;48.160;11.452;2023-05-10T12:44:14;13.90;99.90
30473;DHT22;17263;48.160;11.452;2023-05-10T12:46:40;13.90;99.90
30473;DHT22;17263;48.160;11.452;2023-05-10T12:49:06;13.90;99.90
30473;DHT22;17263;48.160;11.452;2023-05-10T12:51:32;13.90;99.90
30473;DHT22;17263;48.160;11.452;2023-05-10T12:53:58;14.00;99.90
30473;DHT22;17263;48.160;11.452;2023-05-10T12:56:24;14.00;99.90
30473;DHT22;17263;48.160;11.452;2023-05-10T12:58:50;14.00;99.90
30473;DHT22;17263;48.160;11.452;2023-05-10T13:01:16;14.00;99.90
30473;DHT22;17263;48.160;11.452;2023-05-10T13:03:42;14.10;99.90
30473;DHT22;17263;48.160;11.452;2023-05-10T13:06:12;14.20;99.90
30473;DHT22;17263;48.160;11.452;2023-05-10T13:08:39;14.20;99.90
30473;DHT22;17263;48.160;11.452;2023-05-10T13:11:05;14.30;99.90
30473;DHT22;17263;48.160;11.452;2023-05-10T13:13:31;14.40;99.90
30473;DHT22;17263;48.160;11.452;2023-05-10T13:15:57;14.40;99.90
30473;DHT22;17263;48.160;11.452;2023-05-10T13:18:23;14.40;99.90
30473;DHT22;17263;48.160;11.452;2023-05-10T13:20:50;14.40;99.90
30473;DHT22;17263;48.160;11.452;2023-05-10T13:23:16;14.50;99.90
30473;DHT22;17263;48.160;11.452;2023-05-10T13:25:42;14.40;99.90
30473;DHT22;17263;48.160;11.452;2023-05-10T13:28:08;14.30;99.90
30473;DHT22;17263;48.160;11.452;2023-05-10T13:30:34;14.30;99.90
30473;DHT22;17263;48.160;11.452;2023-05-10T13:33:00;14.20;99.90
30473;DHT22;17263;48.160;11.452;2023-05-10T13:35:26;14.10;99.90
30473;DHT22;17263;48.160;11.452;2023-05-10T13:37:52;14.00;99.90
30473;DHT22;17263;48.160;11.452;2023-05-10T13:40:19;14.00;99.90
30473;DHT22;17263;48.160;11.452;2023-05-10T13:42:45;14.10;99.90
30473;DHT22;17263;48.160;11.452;2023-05-10T13:45:12;14.00;99.90
30473;DHT22;17263;48.160;11.452;2023-05-10T13:47:38;14.10;99.90
30473;DHT22;17263;48.160;11.452;2023-05-10T13:50:05;14.10;99.90
30473;DHT22;17263;48.160;11.452;2023-05-10T13:52:31;14.20;99.90
30473;DHT22;17263;48.160;11.452;2023-05-10T13:54:57;14.10;99.90
30473;DHT22;17263;48.160;11.452;2023-05-10T13:57:23;14.20;99.90
30473;DHT22;17263;48.160;11.452;2023-05-10T13:59:50;14.20;99.90
30473;DHT22;17263;48.160;11.452;2023-05-10T14:02:16;14.20;99.90
30473;DHT22;17263;48.160;11.452;2023-05-10T14:04:42;14.10;99.90
30473;DHT22;17263;48.160;11.452;2023-05-10T14:07:08;14.20;99.90
30473;DHT22;17263;48.160;11.452;2023-05-10T14:09:34;14.20;99.90
30473;DHT22;17263;48.160;11.452;2023-05-10T14:12:00;14.20;99.90
30473;DHT22;17263;48.160;11.452;2023-05-10T14:14:26;14.30;99.90
30473;DHT22;17263;48.160;11.452;2023-05-10T14:16:52;14.20;99.90
30473;DHT22;17263;48.160;11.452;2023-05-10T14:19:18;14.20;99.90
30473;DHT22;17263;48.160;11.452;2023-05-10T14:21:44;14.20;99.90
30473;DHT22;17263;48.160;11.452;2023-05-10T14:24:10;14.30;99.90
30473;DHT22;17263;48.160;11.452;2023-05-10T14:26:36;14.20;99.90
30473;DHT22;17263;48.160;11.452;2023-05-10T14:29:03;14.30;99.90
30473;DHT22;17263;48.160;11.452;2023-05-10T14:31:29;14.40;99.90
30473;DHT22;17263;48.160;11.452;2023-05-10T14:33:56;14.30;99.90
30473;DHT22;17263;48.160;11.452;2023-05-10T14:36:23;14.20;99.90
30473;DHT22;17263;48.160;11.452;2023-05-10T14:38:49;14.00;99.90
30473;DHT22;17263;48.160;11.452;2023-05-10T14:41:16;14.00;99.90
30473;DHT22;17263;48.160;11.452;2023-05-10T14:43:43;13.90;99.90
30473;DHT22;17263;48.160;11.452;2023-05-10T14:46:09;13.80;99.90
30473;DHT22;17263;48.160;11.452;2023-05-10T14:48:35;13.80;99.90
30473;DHT22;17263;48.160;11.452;2023-05-10T14:51:01;13.80;99.90
30473;DHT22;17263;48.160;11.452;2023-05-10T14:53:27;13.90;99.90
30473;DHT22;17263;48.160;11.452;2023-05-10T14:55:53;13.80;99.90
30473;DHT22;17263;48.160;11.452;2023-05-10T14:58:19;13.80;99.90
30473;DHT22;17263;48.160;11.452;2023-05-10T15:00:45;13.70;99.90
30473;DHT22;17263;48.160;11.452;2023-05-10T15:03:12;13.70;99.90
30473;DHT22;17263;48.160;11.452;2023-05-10T15:05:38;13.70;99.90
30473;DHT22;17263;48.160;11.452;2023-05-10T15:08:04;13.70;99.90
30473;DHT22;17263;48.160;11.452;2023-05-10T15:10:31;13.60;99.90
30473;DHT22;17263;48.160;11.452;2023-05-10T15:12:58;13.60;99.90
30473;DHT22;17263;48.160;11.452;2023-05-10T15:15:24;13.70;99.90
30473;DHT22;17263;48.160;11.452;2023-05-10T15:17:51;13.60;99.90
30473;DHT22;17263;48.160;11.452;2023-05-10T15:20:17;13.60;99.90
30473;DHT22;17263;48.160;11.452;2023-05-10T15:22:43;13.50;99.90
30473;DHT22;17263;48.160;11.452;2023-05-10T15:25:09;13.50;99.90
30473;DHT22;17263;48.160;11.452;2023-05-10T15:27:35;13.50;99.90
30473;DHT22;17263;48.160;11.452;2023-05-10T15:30:01;13.50;99.90
30473;DHT22;17263;48.160;11.452;2023-05-10T15:32:27;13.50;99.90
30473;DHT22;17263;48.160;11.452;2023-05-10T15:34:55;13.40;99.90
30473;DHT22;17263;48.160;11.452;2023-05-10T15:37:21;13.40;99.90
30473;DHT22;17263;48.160;11.452;2023-05-10T15:39:49;13.50;99.90